Time;durP1;ratioP1;P1;durP2;ratioP2;P2;SDS_P1;SDS_P2;PMS_P1;PMS_P2;Temp;Humidity;BMP_temperature;BMP_pressure;BME280_temperature;BME280_humidity;BME280_pressure;Samples;Min_cycle;Max_cycle;Signal;HPM_P1;HPM_P2
2022/04/22 00:03:31;;;;;;;8.43;2.30;;;;;;;;;;10442385;28;20018;-63
2022/04/22 00:08:51;;;;;;;6.70;2.05;;;;;;;;;;10445956;28;20083;-57
2022/04/22 00:13:54;;;;;;;5.05;2.20;;;;;;;;;;10348786;28;20671;-58
2022/04/22 00:18:55;;;;;;;4.32;2.05;;;;;;;;;;10360118;28;20473;-57
2022/04/22 00:23:55;;;;;;;5.38;2.42;;;;;;;;;;10347103;28;20050;-57
2022/04/22 00:28:56;;;;;;;5.90;2.13;;;;;;;;;;10355395;28;20042;-58
2022/04/22 00:33:57;;;;;;;4.57;1.73;;;;;;;;;;10355135;28;20061;-61
2022/04/22 00:38:57;;;;;;;8.85;2.00;;;;;;;;;;10358628;28;20046;-59
2022/04/22 00:43:58;;;;;;;6.85;2.60;;;;;;;;;;10363589;28;20752;-65
2022/04/22 00:48:58;;;;;;;3.42;2.33;;;;;;;;;;10384461;28;20042;-58
2022/04/22 00:54:02;;;;;;;6.65;2.10;;;;;;;;;;10435148;28;20029;-59
2022/04/22 00:59:03;;;;;;;7.38;2.20;;;;;;;;;;10454628;28;20075;-57
2022/04/22 01:14:44;;;;;;;2.05;1.83;;;;;;;;;;10452541;28;20041;-58
2022/04/22 01:19:44;;;;;;;3.25;2.00;;;;;;;;;;10449305;28;20040;-63
2022/04/22 01:24:46;;;;;;;4.05;2.03;;;;;;;;;;10458012;28;20033;-58
2022/04/22 01:29:46;;;;;;;4.75;2.20;;;;;;;;;;10452433;28;20040;-63
2022/04/22 01:34:47;;;;;;;3.83;2.05;;;;;;;;;;10456626;28;20471;-62
2022/04/22 01:39:47;;;;;;;3.42;1.88;;;;;;;;;;10448271;28;20500;-62
2022/04/22 01:44:49;;;;;;;4.18;2.35;;;;;;;;;;10439721;28;20538;-66
2022/04/22 01:49:50;;;;;;;4.40;2.00;;;;;;;;;;10452014;28;20033;-65
2022/04/22 01:54:51;;;;;;;3.58;1.85;;;;;;;;;;10455998;28;20484;-67
2022/04/22 01:59:51;;;;;;;1.83;1.58;;;;;;;;;;10440959;28;20099;-67
2022/04/22 02:04:52;;;;;;;3.42;1.83;;;;;;;;;;10452140;28;20396;-58
2022/04/22 02:09:53;;;;;;;3.55;2.05;;;;;;;;;;10449265;28;20037;-59
2022/04/22 02:14:53;;;;;;;1.73;1.63;;;;;;;;;;10448725;28;20380;-65
2022/04/22 02:19:54;;;;;;;2.80;1.80;;;;;;;;;;10446852;28;20048;-64
2022/04/22 02:24:56;;;;;;;3.03;2.08;;;;;;;;;;10451227;28;20029;-64
2022/04/22 02:29:57;;;;;;;2.85;2.05;;;;;;;;;;10447203;28;20067;-62
2022/04/22 02:34:57;;;;;;;2.28;1.83;;;;;;;;;;10453361;28;20051;-63
2022/04/22 02:39:58;;;;;;;2.50;1.83;;;;;;;;;;10445972;28;20032;-65
2022/04/22 02:50:34;;;;;;;2.65;1.70;;;;;;;;;;10312782;28;20057;-59
2022/04/22 02:55:40;;;;;;;2.03;1.77;;;;;;;;;;10306977;28;20049;-58
2022/04/22 03:00:40;;;;;;;1.63;1.40;;;;;;;;;;10296164;28;20074;-59
2022/04/22 03:05:41;;;;;;;3.13;1.90;;;;;;;;;;10289062;28;20047;-58
2022/04/22 03:10:42;;;;;;;2.70;2.05;;;;;;;;;;10287202;28;20043;-58
2022/04/22 03:15:42;;;;;;;3.38;1.92;;;;;;;;;;10272700;28;20047;-58
2022/04/22 03:20:43;;;;;;;2.15;1.77;;;;;;;;;;10294446;28;20121;-63
2022/04/22 03:25:44;;;;;;;2.20;2.00;;;;;;;;;;10439142;28;20238;-64
2022/04/22 03:30:44;;;;;;;2.95;1.90;;;;;;;;;;10442827;28;20033;-59
2022/04/22 03:35:50;;;;;;;2.03;1.60;;;;;;;;;;10445151;28;20037;-58
2022/04/22 03:40:52;;;;;;;2.30;1.60;;;;;;;;;;10435186;28;20026;-61
2022/04/22 03:45:52;;;;;;;2.45;1.70;;;;;;;;;;10440965;28;20032;-64
2022/04/22 03:50:53;;;;;;;2.10;1.65;;;;;;;;;;10434507;28;20032;-64
2022/04/22 03:55:54;;;;;;;2.58;1.83;;;;;;;;;;10445103;28;20033;-58
2022/04/22 04:00:54;;;;;;;2.65;1.90;;;;;;;;;;10435317;28;20040;-58
2022/04/22 04:05:55;;;;;;;2.08;1.90;;;;;;;;;;10437793;28;20029;-58
2022/04/22 04:16:15;;;;;;;2.60;1.88;;;;;;;;;;10439526;28;20036;-59
2022/04/22 04:26:36;;;;;;;2.72;1.50;;;;;;;;;;10429275;28;20482;-59
2022/04/22 04:31:37;;;;;;;2.10;1.75;;;;;;;;;;10422593;28;20037;-58
2022/04/22 04:36:37;;;;;;;3.80;1.70;;;;;;;;;;10430838;28;20036;-59
2022/04/22 04:41:38;;;;;;;2.13;1.85;;;;;;;;;;10426081;28;20037;-57
2022/04/22 04:46:39;;;;;;;1.30;1.20;;;;;;;;;;10430283;28;20047;-64
2022/04/22 04:51:39;;;;;;;1.70;1.60;;;;;;;;;;10421639;28;20033;-67
2022/04/22 04:56:40;;;;;;;2.17;1.60;;;;;;;;;;10426111;28;20053;-66
2022/04/22 05:01:40;;;;;;;3.08;1.70;;;;;;;;;;10426816;28;20607;-64
2022/04/22 05:06:41;;;;;;;1.70;1.50;;;;;;;;;;10430483;28;20400;-63
2022/04/22 05:11:42;;;;;;;1.98;1.75;;;;;;;;;;10428485;28;20098;-64
2022/04/22 05:16:42;;;;;;;8.55;1.40;;;;;;;;;;10444054;28;20496;-64
2022/04/22 05:21:43;;;;;;;5.22;1.50;;;;;;;;;;10431546;28;20531;-64
2022/04/22 05:26:43;;;;;;;1.83;1.50;;;;;;;;;;10451298;28;20036;-66
2022/04/22 05:37:03;;;;;;;3.60;1.67;;;;;;;;;;10434648;28;20041;-63
2022/04/22 05:42:05;;;;;;;2.67;1.40;;;;;;;;;;10427445;28;20033;-64
2022/04/22 05:47:07;;;;;;;7.35;1.35;;;;;;;;;;10449253;28;20029;-67
2022/04/22 05:52:07;;;;;;;2.38;1.60;;;;;;;;;;10457650;28;20032;-66
2022/04/22 05:57:08;;;;;;;1.77;1.33;;;;;;;;;;10453077;28;20047;-68
2022/04/22 06:02:08;;;;;;;3.22;1.55;;;;;;;;;;10435573;28;20450;-68
2022/04/22 06:07:09;;;;;;;11.57;1.88;;;;;;;;;;10430902;28;20480;-66
2022/04/22 06:12:10;;;;;;;17.75;2.60;;;;;;;;;;10426578;28;20032;-65
2022/04/22 06:17:10;;;;;;;8.77;2.40;;;;;;;;;;10442456;28;20033;-65
2022/04/22 06:22:11;;;;;;;12.32;2.15;;;;;;;;;;10439285;28;20033;-61
2022/04/22 06:27:12;;;;;;;16.83;2.88;;;;;;;;;;10429952;28;20021;-66
2022/04/22 06:32:14;;;;;;;9.32;2.20;;;;;;;;;;10431785;28;20024;-67
2022/04/22 06:37:14;;;;;;;8.77;2.63;;;;;;;;;;10431036;28;20500;-63
2022/04/22 06:47:35;;;;;;;14.75;2.83;;;;;;;;;;10440061;28;20056;-61
2022/04/22 06:52:36;;;;;;;10.45;2.45;;;;;;;;;;10419458;28;20045;-56
2022/04/22 06:57:39;;;;;;;14.93;2.55;;;;;;;;;;10448171;28;20404;-57
2022/04/22 07:02:40;;;;;;;20.55;2.63;;;;;;;;;;10415667;28;20029;-58
2022/04/22 07:07:41;;;;;;;17.13;2.88;;;;;;;;;;10452370;28;20090;-59
2022/04/22 07:12:42;;;;;;;12.15;2.45;;;;;;;;;;10434156;28;20034;-59
2022/04/22 07:17:42;;;;;;;15.20;3.20;;;;;;;;;;10449658;28;20064;-63
2022/04/22 07:22:44;;;;;;;12.38;3.00;;;;;;;;;;10429884;28;20033;-57
2022/04/22 07:27:47;;;;;;;22.83;2.80;;;;;;;;;;10443948;28;20032;-58
2022/04/22 07:32:49;;;;;;;20.88;3.15;;;;;;;;;;10454065;28;20029;-58
2022/04/22 07:37:53;;;;;;;15.82;2.30;;;;;;;;;;10441850;28;20040;-63
2022/04/22 07:48:14;;;;;;;18.15;2.67;;;;;;;;;;10449269;28;20532;-61
2022/04/22 07:53:16;;;;;;;21.52;2.47;;;;;;;;;;10436842;28;20036;-59
2022/04/22 07:58:17;;;;;;;9.98;2.30;;;;;;;;;;10453643;28;20048;-57
2022/04/22 08:03:18;;;;;;;16.42;3.50;;;;;;;;;;10440124;28;20057;-64
2022/04/22 08:08:18;;;;;;;10.88;2.60;;;;;;;;;;10453018;28;20032;-62
2022/04/22 08:13:19;;;;;;;15.02;2.65;;;;;;;;;;10439221;28;20033;-63
2022/04/22 08:18:19;;;;;;;8.98;2.40;;;;;;;;;;10449910;28;20464;-63
2022/04/22 08:23:22;;;;;;;7.80;2.08;;;;;;;;;;10437481;28;20045;-63
2022/04/22 08:28:23;;;;;;;9.63;2.00;;;;;;;;;;10447848;28;20057;-59
2022/04/22 08:33:23;;;;;;;6.88;1.83;;;;;;;;;;10424577;28;20083;-64
2022/04/22 08:38:24;;;;;;;8.95;2.30;;;;;;;;;;10452687;28;20033;-63
2022/04/22 08:43:25;;;;;;;12.35;2.17;;;;;;;;;;10426888;28;20067;-63
2022/04/22 08:53:47;;;;;;;11.82;2.30;;;;;;;;;;10444058;28;20633;-59
2022/04/22 08:58:48;;;;;;;8.38;1.83;;;;;;;;;;10433434;28;20588;-61
2022/04/22 09:03:49;;;;;;;5.20;1.88;;;;;;;;;;10445816;28;20029;-63
2022/04/22 09:08:50;;;;;;;8.05;1.77;;;;;;;;;;10455734;28;20399;-63
2022/04/22 09:13:51;;;;;;;4.82;1.55;;;;;;;;;;10445556;28;20021;-59
2022/04/22 09:19:00;;;;;;;4.30;1.83;;;;;;;;;;10429841;28;20042;-63
2022/04/22 09:24:14;;;;;;;5.90;1.80;;;;;;;;;;10450092;28;20040;-64
2022/04/22 09:29:14;;;;;;;3.05;1.65;;;;;;;;;;10451059;28;20033;-63
2022/04/22 09:34:31;;;;;;;5.70;1.77;;;;;;;;;;10444988;28;20044;-59
2022/04/22 09:44:52;;;;;;;4.68;1.67;;;;;;;;;;10443482;28;20037;-64
2022/04/22 09:49:54;;;;;;;3.10;1.48;;;;;;;;;;10426021;28;20420;-64
2022/04/22 09:55:08;;;;;;;6.00;1.52;;;;;;;;;;10441880;28;20041;-61
2022/04/22 10:00:09;;;;;;;7.43;1.73;;;;;;;;;;10438031;28;20431;-64
2022/04/22 10:05:11;;;;;;;2.30;1.55;;;;;;;;;;10432387;28;20063;-61
2022/04/22 10:10:14;;;;;;;2.72;1.73;;;;;;;;;;10423468;28;20025;-63
2022/04/22 10:15:19;;;;;;;3.75;1.90;;;;;;;;;;10446213;28;20107;-64
2022/04/22 10:20:20;;;;;;;3.85;1.60;;;;;;;;;;10437288;28;20036;-63
2022/04/22 10:25:20;;;;;;;2.40;1.60;;;;;;;;;;10433873;28;20067;-63
2022/04/22 10:30:22;;;;;;;3.13;1.83;;;;;;;;;;10447776;28;20068;-63
2022/04/22 10:35:24;;;;;;;4.88;1.80;;;;;;;;;;10422195;28;20032;-63
2022/04/22 10:40:28;;;;;;;4.32;1.52;;;;;;;;;;10446594;28;20028;-63
2022/04/22 10:51:03;;;;;;;1.83;1.42;;;;;;;;;;10432607;28;20041;-60
2022/04/22 10:56:25;;;;;;;3.10;1.60;;;;;;;;;;10434236;28;20072;-63
2022/04/22 11:01:31;;;;;;;4.75;1.50;;;;;;;;;;10441128;28;20032;-64
2022/04/22 11:06:34;;;;;;;2.58;1.38;;;;;;;;;;10439817;28;20036;-63
2022/04/22 11:11:41;;;;;;;2.05;1.33;;;;;;;;;;10430181;28;20574;-63
2022/04/22 11:16:42;;;;;;;2.08;1.50;;;;;;;;;;10432831;28;20053;-63
2022/04/22 11:21:42;;;;;;;3.65;1.60;;;;;;;;;;10412987;28;20492;-63
2022/04/22 11:26:44;;;;;;;2.58;1.40;;;;;;;;;;10439908;28;20404;-63
2022/04/22 11:32:20;;;;;;;4.50;1.90;;;;;;;;;;10429326;28;20037;-64
2022/04/22 11:37:22;;;;;;;1.25;1.15;;;;;;;;;;10425258;28;20037;-63
2022/04/22 11:42:23;;;;;;;2.00;1.33;;;;;;;;;;10438564;28;20021;-63
2022/04/22 11:47:23;;;;;;;3.30;1.42;;;;;;;;;;10433412;28;20388;-53
2022/04/22 11:52:26;;;;;;;7.20;1.33;;;;;;;;;;10409778;28;20094;-51
2022/04/22 11:57:32;;;;;;;2.97;1.42;;;;;;;;;;10431457;28;20053;-62
2022/04/22 12:08:11;;;;;;;1.83;1.33;;;;;;;;;;10443819;28;20032;-61
2022/04/22 12:13:15;;;;;;;4.03;1.60;;;;;;;;;;10436421;28;20033;-63
2022/04/22 12:18:32;;;;;;;3.60;1.50;;;;;;;;;;10445793;28;20079;-61
2022/04/22 12:23:38;;;;;;;2.40;1.35;;;;;;;;;;10441453;28;20033;-60
2022/04/22 12:29:10;;;;;;;3.72;1.23;;;;;;;;;;10455208;28;20594;-60
2022/04/22 12:34:25;;;;;;;1.45;1.25;;;;;;;;;;10442553;28;20025;-60
2022/04/22 12:39:43;;;;;;;1.60;1.30;;;;;;;;;;10450895;28;20049;-59
2022/04/22 12:55:42;;;;;;;1.40;1.17;;;;;;;;;;10445149;28;20033;-62
2022/04/22 13:00:43;;;;;;;2.00;1.38;;;;;;;;;;10423946;28;20033;-61
2022/04/22 13:05:43;;;;;;;1.30;1.20;;;;;;;;;;10444593;28;20033;-57
2022/04/22 13:10:45;;;;;;;2.45;1.42;;;;;;;;;;10435340;28;20037;-59
2022/04/22 13:15:46;;;;;;;4.50;1.50;;;;;;;;;;10445886;28;20071;-64
2022/04/22 13:20:47;;;;;;;1.13;1.02;;;;;;;;;;10438515;28;20124;-63
2022/04/22 13:25:47;;;;;;;1.30;1.20;;;;;;;;;;10447922;28;20396;-64
2022/04/22 13:30:48;;;;;;;2.58;1.02;;;;;;;;;;10443915;28;20045;-64
2022/04/22 13:35:48;;;;;;;2.25;1.00;;;;;;;;;;10448695;28;20037;-64
2022/04/22 13:40:49;;;;;;;3.83;1.25;;;;;;;;;;10447342;28;20036;-63
2022/04/22 13:56:28;;;;;;;1.42;1.05;;;;;;;;;;10452618;28;20411;-63
2022/04/22 14:01:28;;;;;;;3.00;1.25;;;;;;;;;;10441669;28;20025;-64
2022/04/22 14:06:29;;;;;;;2.17;1.15;;;;;;;;;;10443601;28;20053;-63
2022/04/22 14:11:30;;;;;;;2.05;1.70;;;;;;;;;;10423015;28;20029;-60
2022/04/22 14:16:31;;;;;;;7.20;1.17;;;;;;;;;;10432592;28;20075;-60
2022/04/22 14:21:32;;;;;;;1.20;1.10;;;;;;;;;;10437948;28;20025;-61
2022/04/22 14:26:34;;;;;;;1.42;1.15;;;;;;;;;;10445975;28;20072;-60
2022/04/22 14:31:35;;;;;;;5.32;1.55;;;;;;;;;;10430805;28;21070;-62
2022/04/22 14:36:35;;;;;;;9.02;1.65;;;;;;;;;;10434172;28;20057;-58
2022/04/22 14:41:36;;;;;;;14.05;1.98;;;;;;;;;;10432840;28;20033;-54
2022/04/22 14:46:39;;;;;;;12.70;1.83;;;;;;;;;;10428897;28;20033;-55
2022/04/22 14:51:48;;;;;;;9.75;1.92;;;;;;;;;;10430959;28;20033;-57
2022/04/22 14:56:48;;;;;;;6.97;1.50;;;;;;;;;;10444122;28;20053;-56
2022/04/22 15:01:49;;;;;;;12.32;1.50;;;;;;;;;;10436855;28;20421;-56
2022/04/22 15:06:50;;;;;;;7.43;1.45;;;;;;;;;;10430413;28;20033;-52
2022/04/22 15:11:51;;;;;;;4.07;1.30;;;;;;;;;;10431493;28;20361;-54
2022/04/22 15:16:52;;;;;;;4.13;1.63;;;;;;;;;;10424718;28;20028;-55
2022/04/22 15:27:17;;;;;;;3.70;1.60;;;;;;;;;;10439597;28;20040;-57
2022/04/22 15:32:17;;;;;;;5.97;1.50;;;;;;;;;;10449576;28;20021;-50
2022/04/22 15:37:19;;;;;;;4.95;1.10;;;;;;;;;;10431070;28;20036;-56
2022/04/22 15:42:20;;;;;;;33.88;2.13;;;;;;;;;;10440119;28;20465;-51
2022/04/22 15:47:20;;;;;;;5.60;1.60;;;;;;;;;;10441458;28;20031;-56
2022/04/22 15:52:21;;;;;;;3.10;1.42;;;;;;;;;;10434518;28;21504;-53
2022/04/22 15:57:22;;;;;;;5.40;2.22;;;;;;;;;;10429948;28;20068;-47
2022/04/22 16:02:22;;;;;;;8.45;1.80;;;;;;;;;;10415569;28;20032;-57
2022/04/22 16:07:23;;;;;;;17.80;2.95;;;;;;;;;;10445292;28;20047;-61
2022/04/22 16:17:54;;;;;;;4.22;1.42;;;;;;;;;;10439310;28;20068;-46
2022/04/22 16:22:55;;;;;;;10.18;1.85;;;;;;;;;;10422634;28;20033;-47
2022/04/22 16:27:58;;;;;;;7.57;2.08;;;;;;;;;;10439733;28;20037;-46
2022/04/22 16:32:59;;;;;;;9.82;1.83;;;;;;;;;;10447865;28;20098;-46
2022/04/22 16:38:01;;;;;;;7.88;1.40;;;;;;;;;;10430916;28;20128;-46
2022/04/22 16:43:02;;;;;;;7.18;1.88;;;;;;;;;;10440808;28;20067;-47
2022/04/22 16:48:03;;;;;;;3.72;1.55;;;;;;;;;;10425872;28;20064;-49
2022/04/22 16:53:05;;;;;;;4.80;1.67;;;;;;;;;;10428777;28;20021;-46
2022/04/22 16:58:05;;;;;;;6.57;1.50;;;;;;;;;;10426243;28;20041;-48
2022/04/22 17:03:06;;;;;;;7.15;1.95;;;;;;;;;;10419309;28;20025;-46
2022/04/22 17:08:08;;;;;;;5.95;1.70;;;;;;;;;;10430914;28;20499;-51
2022/04/22 17:13:08;;;;;;;4.95;1.52;;;;;;;;;;10440316;28;20061;-46
2022/04/22 17:23:28;;;;;;;6.15;1.98;;;;;;;;;;10432811;28;20037;-46
2022/04/22 17:28:29;;;;;;;2.95;1.50;;;;;;;;;;10446122;28;20028;-46
2022/04/22 17:33:30;;;;;;;5.95;1.52;;;;;;;;;;10431490;28;20033;-48
2022/04/22 17:38:36;;;;;;;3.92;1.55;;;;;;;;;;10436305;28;20052;-46
2022/04/22 17:43:38;;;;;;;6.70;1.50;;;;;;;;;;10435090;28;20373;-51
2022/04/22 17:48:39;;;;;;;4.97;1.40;;;;;;;;;;10432134;28;20034;-54
2022/04/22 17:53:41;;;;;;;5.63;1.70;;;;;;;;;;10435920;28;20534;-58
2022/04/22 17:58:41;;;;;;;2.55;1.38;;;;;;;;;;10441553;28;20060;-59
2022/04/22 18:03:42;;;;;;;3.80;1.38;;;;;;;;;;10432145;28;20397;-54
2022/04/22 18:08:43;;;;;;;2.78;1.27;;;;;;;;;;10434732;28;20044;-57
2022/04/22 18:13:45;;;;;;;3.88;1.63;;;;;;;;;;10422300;28;20034;-50
2022/04/22 18:18:47;;;;;;;3.30;1.40;;;;;;;;;;10429327;28;20073;-57
2022/04/22 18:23:48;;;;;;;2.10;1.40;;;;;;;;;;10433029;28;20037;-58
2022/04/22 18:28:48;;;;;;;3.17;1.27;;;;;;;;;;10433605;28;20028;-58
2022/04/22 18:33:49;;;;;;;1.73;1.30;;;;;;;;;;10429485;28;20091;-58
2022/04/22 18:38:50;;;;;;;2.65;1.52;;;;;;;;;;10437847;28;20028;-58
2022/04/22 18:43:54;;;;;;;3.65;1.30;;;;;;;;;;10428807;28;20049;-58
2022/04/22 18:48:56;;;;;;;8.70;1.38;;;;;;;;;;10432926;28;20052;-59
2022/04/22 18:53:57;;;;;;;1.70;1.40;;;;;;;;;;10441345;28;20029;-57
2022/04/22 18:58:59;;;;;;;6.43;1.60;;;;;;;;;;10432644;28;20033;-58
2022/04/22 19:03:59;;;;;;;4.43;1.55;;;;;;;;;;10433583;28;20033;-59
2022/04/22 19:09:00;;;;;;;4.13;1.50;;;;;;;;;;10432420;28;20451;-59
2022/04/22 19:14:00;;;;;;;4.30;1.67;;;;;;;;;;10421223;28;20036;-59
2022/04/22 19:19:01;;;;;;;2.58;1.75;;;;;;;;;;10424643;28;20036;-57
2022/04/22 19:24:02;;;;;;;2.75;1.33;;;;;;;;;;10429554;28;20033;-50
2022/04/22 19:29:03;;;;;;;2.55;1.40;;;;;;;;;;10431614;28;20567;-52
2022/04/22 19:34:05;;;;;;;1.73;1.33;;;;;;;;;;10432130;28;20511;-47
2022/04/22 19:44:25;;;;;;;3.75;1.55;;;;;;;;;;10422736;28;20061;-50
2022/04/22 19:49:25;;;;;;;2.13;1.45;;;;;;;;;;10432588;28;20123;-46
2022/04/22 19:54:26;;;;;;;2.50;1.50;;;;;;;;;;10434254;28;20037;-56
2022/04/22 19:59:27;;;;;;;2.97;1.48;;;;;;;;;;10427501;28;20573;-51
2022/04/22 20:04:27;;;;;;;2.88;1.48;;;;;;;;;;10439638;28;20037;-54
2022/04/22 20:09:28;;;;;;;2.15;1.77;;;;;;;;;;10425575;28;20024;-55
2022/04/22 20:14:29;;;;;;;2.72;1.48;;;;;;;;;;10439700;28;20594;-46
2022/04/22 20:19:33;;;;;;;1.75;1.38;;;;;;;;;;10439487;28;20033;-48
2022/04/22 20:24:34;;;;;;;2.08;1.58;;;;;;;;;;10423826;28;20038;-50
2022/04/22 20:29:34;;;;;;;2.80;1.40;;;;;;;;;;10429770;28;20053;-46
2022/04/22 20:45:33;;;;;;;1.90;1.50;;;;;;;;;;10241728;28;19922;-47
2022/04/22 20:50:35;;;;;;;2.83;1.40;;;;;;;;;;10244446;28;20051;-46
2022/04/22 20:55:36;;;;;;;2.22;1.38;;;;;;;;;;10241074;29;20043;-46
2022/04/22 21:00:36;;;;;;;3.83;1.52;;;;;;;;;;10243284;29;20055;-47
2022/04/22 21:05:37;;;;;;;1.73;1.45;;;;;;;;;;10241671;28;20095;-48
2022/04/22 21:10:37;;;;;;;1.63;1.52;;;;;;;;;;10376895;28;20048;-46
2022/04/22 21:15:38;;;;;;;4.72;1.50;;;;;;;;;;10439995;28;20037;-46
2022/04/22 21:20:39;;;;;;;5.20;1.80;;;;;;;;;;10441997;28;20052;-46
2022/04/22 21:25:39;;;;;;;2.13;1.50;;;;;;;;;;10439646;28;20591;-47
2022/04/22 21:30:46;;;;;;;9.75;1.70;;;;;;;;;;10445373;28;20029;-45
2022/04/22 21:35:47;;;;;;;5.85;2.50;;;;;;;;;;10429997;28;20037;-59
2022/04/22 21:40:49;;;;;;;12.20;2.10;;;;;;;;;;10431132;28;22002;-68
2022/04/22 21:45:50;;;;;;;15.02;2.20;;;;;;;;;;10442898;28;20029;-67
2022/04/22 21:50:51;;;;;;;12.45;1.98;;;;;;;;;;10425788;28;20374;-55
2022/04/22 21:55:51;;;;;;;15.50;2.10;;;;;;;;;;10434051;28;20029;-67
2022/04/22 22:00:54;;;;;;;20.80;2.58;;;;;;;;;;10438689;28;20044;-65
2022/04/22 22:05:56;;;;;;;6.13;2.20;;;;;;;;;;10434966;28;20492;-69
2022/04/22 22:11:02;;;;;;;4.55;2.05;;;;;;;;;;10436407;28;20040;-69
2022/04/22 22:16:06;;;;;;;11.38;2.47;;;;;;;;;;10436611;28;20409;-61
2022/04/22 22:21:09;;;;;;;10.85;2.25;;;;;;;;;;10435024;28;20037;-71
2022/04/22 22:26:10;;;;;;;12.13;2.42;;;;;;;;;;10440571;28;20021;-63
2022/04/22 22:31:12;;;;;;;3.80;2.00;;;;;;;;;;10442674;28;20044;-70
2022/04/22 22:36:13;;;;;;;10.07;2.15;;;;;;;;;;10425830;28;20534;-73
2022/04/22 22:41:17;;;;;;;13.98;2.33;;;;;;;;;;10441153;28;20087;-73
2022/04/22 22:46:18;;;;;;;6.22;2.25;;;;;;;;;;10428383;28;20052;-58
2022/04/22 22:51:19;;;;;;;10.70;2.63;;;;;;;;;;10431313;28;20029;-62
2022/04/22 22:56:19;;;;;;;8.30;2.20;;;;;;;;;;10435814;28;20139;-56
2022/04/22 23:01:20;;;;;;;9.70;2.08;;;;;;;;;;10425033;28;20472;-57
2022/04/22 23:06:21;;;;;;;11.38;1.85;;;;;;;;;;10437165;28;20041;-55
2022/04/22 23:11:23;;;;;;;13.98;2.03;;;;;;;;;;10441896;28;20033;-48
2022/04/22 23:16:24;;;;;;;14.88;2.58;;;;;;;;;;10437847;28;20024;-50
2022/04/22 23:21:24;;;;;;;7.60;2.30;;;;;;;;;;10434319;28;20028;-50
2022/04/22 23:26:25;;;;;;;10.90;3.00;;;;;;;;;;10432543;28;20036;-55
2022/04/22 23:31:25;;;;;;;19.98;2.47;;;;;;;;;;10434377;28;20029;-58
2022/04/22 23:36:28;;;;;;;15.15;2.05;;;;;;;;;;10431688;28;20078;-59
2022/04/22 23:41:28;;;;;;;15.32;2.30;;;;;;;;;;10431687;28;20029;-59
2022/04/22 23:46:29;;;;;;;7.45;2.10;;;;;;;;;;10425200;28;20033;-59
2022/04/22 23:51:30;;;;;;;13.38;2.38;;;;;;;;;;10441443;28;20075;-59
2022/04/22 23:56:31;;;;;;;5.63;1.90;;;;;;;;;;10413267;28;20041;-59
